Time;durP1;ratioP1;P1;durP2;ratioP2;P2;SDS_P1;SDS_P2;PMS_P1;PMS_P2;Temp;Humidity;BMP_temperature;BMP_pressure;BME280_temperature;BME280_humidity;BME280_pressure;Samples;Min_cycle;Max_cycle;Signal;HPM_P1;HPM_P2
2021/09/18 00:01:32;;;;;;;13.70;9.60;;;;;;;22.80;56.46;99769.16;117236;1184;23447;-61
2021/09/18 00:04:00;;;;;;;11.80;9.40;;;;;;;22.77;56.45;99767.47;117347;1176;23579;-61
2021/09/18 00:06:29;;;;;;;11.50;9.10;;;;;;;22.73;56.52;99761.84;117348;1184;23471;-61
2021/09/18 00:09:13;;;;;;;13.00;8.70;;;;;;;22.69;56.47;99760.36;117341;1176;23472;-56
2021/09/18 00:12:01;;;;;;;10.00;8.60;;;;;;;22.64;56.57;99758.20;117347;1185;21867;-56
2021/09/18 00:14:29;;;;;;;11.50;7.90;;;;;;;22.64;56.50;99755.39;117299;1183;23453;-55
2021/09/18 00:16:58;;;;;;;14.20;9.00;;;;;;;22.62;56.62;99756.21;117305;1182;23557;-57
2021/09/18 00:19:28;;;;;;;14.40;9.00;;;;;;;22.65;56.36;99755.10;117354;1182;21895;-61
2021/09/18 00:22:00;;;;;;;14.50;9.70;;;;;;;22.65;56.53;99755.45;117292;1185;23453;-61
2021/09/18 00:24:48;;;;;;;11.50;9.10;;;;;;;22.65;56.52;99753.89;117332;1185;21886;-56
2021/09/18 00:27:17;;;;;;;11.80;9.60;;;;;;;22.66;56.58;99753.25;117356;1186;22005;-57
2021/09/18 00:29:45;;;;;;;13.20;9.20;;;;;;;22.68;56.50;99755.58;117366;1184;23464;-61
2021/09/18 00:32:13;;;;;;;14.50;9.40;;;;;;;22.77;56.49;99752.63;117320;1182;21914;-57
2021/09/18 00:34:56;;;;;;;15.40;10.60;;;;;;;22.83;56.58;99753.13;117318;1182;21849;-56
2021/09/18 00:37:24;;;;;;;15.00;9.80;;;;;;;22.86;56.39;99752.99;117300;1185;21858;-56
2021/09/18 00:39:53;;;;;;;13.00;9.80;;;;;;;22.90;56.57;99752.92;117348;1182;23452;-56
2021/09/18 00:42:41;;;;;;;15.60;10.40;;;;;;;22.96;56.51;99752.65;117322;1185;21858;-56
2021/09/18 00:45:10;;;;;;;15.00;9.70;;;;;;;22.96;56.70;99750.52;117343;1185;23579;-56
2021/09/18 00:47:58;;;;;;;14.60;10.00;;;;;;;22.97;56.75;99755.46;117348;1182;22918;-55
2021/09/18 00:50:46;;;;;;;18.40;11.10;;;;;;;22.97;56.78;99757.46;117252;1186;22567;-57
2021/09/18 00:53:15;;;;;;;16.90;9.80;;;;;;;22.99;56.94;99754.23;117312;1186;21865;-57
2021/09/18 00:55:43;;;;;;;15.90;10.90;;;;;;;23.03;56.90;99750.20;117036;1182;21836;-63
2021/09/18 00:58:11;;;;;;;18.40;11.30;;;;;;;23.03;56.92;99748.72;117303;1185;21860;-57
2021/09/18 01:00:39;;;;;;;14.20;10.90;;;;;;;23.04;56.88;99747.81;117017;1188;21867;-62
2021/09/18 01:03:30;;;;;;;19.60;10.80;;;;;;;23.04;56.87;99745.98;117311;1188;22671;-57
2021/09/18 01:05:59;;;;;;;16.10;10.90;;;;;;;23.03;56.86;99748.42;117311;1182;22937;-59
2021/09/18 01:08:27;;;;;;;14.30;10.10;;;;;;;23.02;56.80;99740.10;117262;1182;23438;-59
2021/09/18 01:11:15;;;;;;;13.30;9.70;;;;;;;23.03;56.94;99737.48;117260;1185;21846;-64
2021/09/18 01:13:43;;;;;;;14.10;10.30;;;;;;;23.09;56.64;99737.96;117392;1185;21857;-58
2021/09/18 01:16:32;;;;;;;15.40;10.40;;;;;;;23.09;56.70;99735.47;117287;1184;21854;-63
2021/09/18 01:19:02;;;;;;;13.90;9.20;;;;;;;23.09;56.53;99733.14;117339;1182;22068;-57
2021/09/18 01:21:31;;;;;;;16.90;10.70;;;;;;;23.06;56.47;99728.46;117093;1182;21853;-63
2021/09/18 01:24:00;;;;;;;12.80;10.10;;;;;;;23.01;56.73;99728.66;117086;1178;21863;-64
2021/09/18 01:26:33;;;;;;;16.20;10.10;;;;;;;22.92;56.81;99728.50;117377;1185;21858;-63
2021/09/18 01:29:02;;;;;;;15.10;10.00;;;;;;;22.88;56.99;99729.66;117334;1185;23451;-64
2021/09/18 01:31:50;;;;;;;14.90;9.80;;;;;;;22.87;57.00;99732.24;117242;1185;21861;-63
2021/09/18 01:34:22;;;;;;;14.60;9.90;;;;;;;22.86;57.07;99725.87;117301;1176;21858;-62
2021/09/18 01:36:50;;;;;;;18.80;11.20;;;;;;;22.84;56.88;99725.63;117327;1182;22631;-63
2021/09/18 01:39:21;;;;;;;19.40;10.50;;;;;;;22.83;56.77;99721.10;117343;1182;23557;-59
2021/09/18 01:41:49;;;;;;;13.40;9.60;;;;;;;22.83;56.82;99715.91;117340;1180;23013;-64
2021/09/18 01:44:19;;;;;;;17.60;10.50;;;;;;;22.81;56.91;99716.19;117453;1185;22093;-63
2021/09/18 01:46:49;;;;;;;14.70;10.30;;;;;;;22.79;56.89;99714.55;117133;1181;22100;-63
2021/09/18 01:49:18;;;;;;;16.40;10.40;;;;;;;22.79;56.93;99715.82;117353;1184;23451;-63
2021/09/18 01:54:47;;;;;;;13.80;9.70;;;;;;;22.83;56.83;99707.82;117097;1186;22833;-59
2021/09/18 01:57:16;;;;;;;19.80;10.90;;;;;;;22.81;56.66;99706.38;117278;1182;24176;-63
2021/09/18 02:00:05;;;;;;;16.40;9.90;;;;;;;22.79;56.55;99705.11;117298;1186;21878;-63
2021/09/18 02:02:33;;;;;;;18.00;9.70;;;;;;;22.75;56.86;99703.04;117385;1181;23478;-58
2021/09/18 02:05:05;;;;;;;15.90;9.80;;;;;;;22.76;56.82;99697.11;117115;1178;23851;-63
2021/09/18 02:07:34;;;;;;;20.70;10.40;;;;;;;22.79;56.81;99694.55;117321;1186;23579;-63
2021/09/18 02:10:07;;;;;;;20.70;10.60;;;;;;;22.72;56.84;99696.30;117239;1184;23456;-63
2021/09/18 02:12:35;;;;;;;12.50;9.60;;;;;;;22.68;56.97;99695.15;117403;1184;21858;-59
2021/09/18 02:15:07;;;;;;;16.40;9.90;;;;;;;22.68;56.91;99692.28;117326;1185;21882;-60
2021/09/18 02:17:37;;;;;;;15.10;10.40;;;;;;;22.69;56.81;99687.73;117322;1184;22833;-63
2021/09/18 02:20:14;;;;;;;17.50;10.90;;;;;;;22.70;56.83;99680.56;117292;1182;23472;-58
2021/09/18 02:22:43;;;;;;;21.10;11.40;;;;;;;22.68;56.85;99676.04;117474;1181;22806;-62
2021/09/18 02:25:15;;;;;;;19.60;10.70;;;;;;;22.63;56.89;99671.96;117286;1182;23479;-59
2021/09/18 02:27:45;;;;;;;20.20;11.10;;;;;;;22.60;57.04;99671.80;117340;1182;22963;-57
2021/09/18 02:30:19;;;;;;;17.80;10.20;;;;;;;22.64;57.10;99669.16;117294;1179;23188;-58
2021/09/18 02:32:47;;;;;;;16.60;11.70;;;;;;;22.67;57.01;99665.38;117291;1184;21858;-62
2021/09/18 02:35:18;;;;;;;18.90;10.90;;;;;;;22.68;56.97;99668.89;117352;1183;24165;-63
2021/09/18 02:37:46;;;;;;;17.20;11.10;;;;;;;22.72;56.93;99671.11;117303;1182;21870;-57
2021/09/18 02:40:29;;;;;;;18.60;10.50;;;;;;;22.71;56.91;99670.45;117292;1185;23485;-62
2021/09/18 02:42:59;;;;;;;17.80;11.50;;;;;;;22.71;57.07;99669.35;117498;1182;21960;-58
2021/09/18 02:45:47;;;;;;;18.30;11.40;;;;;;;22.74;57.23;99668.11;117273;1186;21854;-63
2021/09/18 02:48:16;;;;;;;19.60;11.10;;;;;;;22.75;57.15;99666.58;117327;1185;21858;-62
2021/09/18 02:50:47;;;;;;;23.10;11.40;;;;;;;22.76;57.15;99664.95;117181;1185;23505;-62
2021/09/18 02:53:22;;;;;;;18.40;12.40;;;;;;;22.72;57.26;99668.03;117278;1178;23559;-58
2021/09/18 02:55:50;;;;;;;13.10;10.10;;;;;;;22.72;57.31;99669.28;117267;1184;21919;-58
2021/09/18 02:58:18;;;;;;;18.90;11.40;;;;;;;22.73;57.21;99671.89;117344;1176;21859;-58
2021/09/18 03:00:46;;;;;;;15.20;11.40;;;;;;;22.75;57.30;99669.84;117190;1181;22978;-63
2021/09/18 03:03:15;;;;;;;14.00;11.80;;;;;;;22.77;57.26;99667.17;117280;1185;22657;-63
2021/09/18 03:05:44;;;;;;;21.60;11.70;;;;;;;22.78;57.36;99670.67;117339;1182;23449;-63
2021/09/18 03:08:13;;;;;;;18.50;11.20;;;;;;;22.79;57.30;99672.05;117361;1185;23461;-58
2021/09/18 03:11:01;;;;;;;13.60;11.30;;;;;;;22.80;57.48;99669.26;117300;1185;21861;-63
2021/09/18 03:13:49;;;;;;;17.20;11.20;;;;;;;22.84;57.46;99669.66;117212;1185;21855;-62
2021/09/18 03:16:23;;;;;;;21.30;12.20;;;;;;;22.88;57.34;99670.05;117317;1182;21964;-58
2021/09/18 03:19:12;;;;;;;17.70;10.90;;;;;;;22.93;57.44;99671.70;117344;1181;21863;-58
2021/09/18 03:21:40;;;;;;;18.20;11.30;;;;;;;22.94;57.40;99672.69;117307;1176;21867;-63
2021/09/18 03:24:28;;;;;;;17.80;11.50;;;;;;;22.95;57.43;99666.33;117048;1186;22926;-63
2021/09/18 03:26:57;;;;;;;15.30;11.30;;;;;;;22.97;57.40;99663.86;117098;1185;23077;-63
2021/09/18 03:29:40;;;;;;;17.10;10.80;;;;;;;23.03;57.27;99660.94;117031;1186;24290;-58
2021/09/18 03:32:09;;;;;;;19.00;12.10;;;;;;;23.05;57.24;99659.73;117115;1186;21861;-63
2021/09/18 03:34:37;;;;;;;20.10;11.00;;;;;;;23.06;57.20;99662.29;117332;1183;23451;-60
2021/09/18 03:37:05;;;;;;;18.40;11.00;;;;;;;23.00;57.28;99665.12;117349;1182;22928;-66
2021/09/18 03:39:34;;;;;;;20.80;13.00;;;;;;;22.95;57.50;99669.06;117265;1180;21865;-66
2021/09/18 03:42:03;;;;;;;17.80;11.90;;;;;;;22.95;57.58;99669.73;117344;1184;23464;-67
2021/09/18 03:44:31;;;;;;;17.60;12.10;;;;;;;22.96;57.45;99672.55;117394;1181;23479;-68
2021/09/18 03:46:59;;;;;;;18.40;12.20;;;;;;;22.95;57.56;99674.96;116988;1184;23442;-62
2021/09/18 03:49:28;;;;;;;19.40;12.50;;;;;;;22.89;57.69;99668.91;117293;1182;23487;-68
2021/09/18 03:51:56;;;;;;;15.50;11.90;;;;;;;22.87;57.84;99667.46;117330;1181;22049;-68
2021/09/18 03:54:25;;;;;;;25.00;12.90;;;;;;;22.86;57.69;99668.42;117336;1185;21859;-67
2021/09/18 03:56:54;;;;;;;17.60;12.10;;;;;;;22.86;57.79;99665.91;117062;1185;22628;-63
2021/09/18 03:59:22;;;;;;;17.70;12.90;;;;;;;22.87;57.73;99660.47;117305;1182;22053;-68
2021/09/18 04:01:50;;;;;;;17.90;12.00;;;;;;;22.89;57.63;99659.06;117023;1187;23532;-67
2021/09/18 04:04:20;;;;;;;20.90;12.90;;;;;;;22.91;57.52;99656.80;117355;1182;22641;-68
2021/09/18 04:06:48;;;;;;;20.50;12.60;;;;;;;22.92;57.72;99656.41;118145;1182;21664;-65
2021/09/18 04:09:17;;;;;;;17.50;12.60;;;;;;;22.92;57.71;99654.10;119204;1185;21771;-64
2021/09/18 04:11:45;;;;;;;17.10;12.90;;;;;;;22.92;57.67;99656.21;118331;1182;22904;-67
2021/09/18 04:14:18;;;;;;;17.50;13.10;;;;;;;22.92;57.76;99662.85;117292;1182;23910;-67
2021/09/18 04:16:46;;;;;;;18.00;13.90;;;;;;;22.92;57.76;99662.48;117333;1181;21858;-62
2021/09/18 04:19:14;;;;;;;21.70;14.80;;;;;;;22.92;57.74;99663.16;117275;1185;21864;-67
2021/09/18 04:21:44;;;;;;;20.80;14.10;;;;;;;22.94;57.64;99669.49;117392;1184;23462;-66
2021/09/18 04:24:15;;;;;;;23.20;14.40;;;;;;;22.93;57.58;99664.92;117380;1184;21859;-64
2021/09/18 04:26:45;;;;;;;20.90;13.10;;;;;;;22.91;57.74;99662.73;117323;1186;23461;-67
2021/09/18 04:29:13;;;;;;;18.10;14.40;;;;;;;22.90;57.88;99663.85;117072;1186;23470;-67
2021/09/18 04:31:42;;;;;;;22.50;14.90;;;;;;;22.89;57.80;99666.27;117280;1185;21856;-64
2021/09/18 04:34:10;;;;;;;19.80;14.00;;;;;;;22.92;57.75;99662.51;117251;1183;23485;-63
2021/09/18 04:36:38;;;;;;;19.50;14.00;;;;;;;22.96;57.85;99659.13;117262;1178;21855;-68
2021/09/18 04:39:06;;;;;;;21.10;14.30;;;;;;;22.96;57.78;99654.10;117081;1187;23655;-65
2021/09/18 04:41:35;;;;;;;23.00;13.90;;;;;;;22.95;57.94;99651.63;117338;1185;21859;-63
2021/09/18 04:44:04;;;;;;;21.80;14.40;;;;;;;22.82;58.31;99655.34;117016;1184;23527;-68
2021/09/18 04:46:33;;;;;;;17.10;13.50;;;;;;;22.78;58.29;99654.75;117248;1183;23469;-62
2021/09/18 04:49:02;;;;;;;16.90;13.80;;;;;;;22.75;58.47;99654.27;117044;1186;21858;-67
2021/09/18 04:51:31;;;;;;;22.50;14.40;;;;;;;22.75;58.53;99653.33;117181;1181;22947;-67
2021/09/18 04:54:00;;;;;;;22.80;14.90;;;;;;;22.88;58.23;99654.56;117355;1182;22623;-62
2021/09/18 04:56:29;;;;;;;23.50;14.30;;;;;;;22.98;57.98;99658.77;117063;1187;21858;-62
2021/09/18 04:59:00;;;;;;;20.00;14.20;;;;;;;23.04;57.90;99660.16;117321;1181;22931;-63
2021/09/18 05:01:28;;;;;;;19.00;14.60;;;;;;;23.05;57.83;99660.75;117351;1182;24240;-62
2021/09/18 05:03:57;;;;;;;21.90;14.30;;;;;;;23.07;57.89;99662.58;117353;1182;22006;-67
2021/09/18 05:06:25;;;;;;;22.10;15.20;;;;;;;23.09;58.16;99660.48;117298;1185;22918;-67
2021/09/18 05:08:53;;;;;;;18.30;14.80;;;;;;;23.13;58.07;99661.22;117296;1184;23654;-63
2021/09/18 05:11:40;;;;;;;19.40;14.40;;;;;;;23.17;58.08;99655.04;117291;1181;23566;-63
2021/09/18 05:14:09;;;;;;;21.60;14.80;;;;;;;23.21;58.01;99659.40;117323;1176;21855;-67
2021/09/18 05:16:43;;;;;;;21.70;14.80;;;;;;;23.23;58.17;99654.21;116980;1178;23532;-62
2021/09/18 05:19:11;;;;;;;20.50;14.30;;;;;;;23.25;58.10;99650.14;117313;1185;21855;-66
2021/09/18 05:21:40;;;;;;;19.40;14.50;;;;;;;23.27;58.12;99646.77;117350;1185;23478;-62
2021/09/18 05:24:11;;;;;;;24.00;15.30;;;;;;;23.30;58.11;99644.21;117343;1185;21854;-62
2021/09/18 05:26:59;;;;;;;20.20;15.60;;;;;;;23.35;58.24;99646.19;117296;1186;22463;-61
2021/09/18 05:29:28;;;;;;;18.50;15.40;;;;;;;23.40;58.27;99645.38;117488;1182;22837;-62
2021/09/18 05:31:56;;;;;;;20.30;15.30;;;;;;;23.46;58.14;99647.84;117312;1186;22878;-66
2021/09/18 05:34:24;;;;;;;19.60;14.50;;;;;;;23.49;58.13;99647.58;117204;1186;21858;-62
2021/09/18 05:36:52;;;;;;;22.40;16.20;;;;;;;23.54;58.25;99644.02;117307;1184;21858;-65
2021/09/18 05:39:21;;;;;;;22.80;16.20;;;;;;;23.62;58.04;99641.43;117299;1185;23452;-65
2021/09/18 05:41:49;;;;;;;21.00;15.30;;;;;;;23.65;58.10;99643.86;117320;1182;23464;-65
2021/09/18 05:44:18;;;;;;;23.00;15.90;;;;;;;23.68;58.06;99647.97;117163;1185;23449;-62
2021/09/18 05:46:47;;;;;;;29.00;15.90;;;;;;;23.69;57.98;99652.64;117303;1182;23108;-63
2021/09/18 05:49:16;;;;;;;21.60;15.30;;;;;;;23.69;57.98;99654.84;117231;1185;21858;-68
2021/09/18 05:51:44;;;;;;;19.90;15.20;;;;;;;23.69;57.99;99655.89;117306;1182;21943;-62
2021/09/18 05:54:13;;;;;;;19.30;15.00;;;;;;;23.70;57.97;99654.75;117323;1185;21858;-69
2021/09/18 05:56:41;;;;;;;22.40;14.90;;;;;;;23.67;58.03;99652.64;117317;1182;21864;-62
2021/09/18 05:59:12;;;;;;;23.00;15.60;;;;;;;23.67;57.96;99649.48;117332;1182;22926;-62
2021/09/18 06:02:00;;;;;;;23.90;14.80;;;;;;;23.71;57.99;99653.95;117321;1185;21856;-68
2021/09/18 06:04:29;;;;;;;21.40;15.60;;;;;;;23.73;57.95;99651.27;117315;1185;21855;-68
2021/09/18 06:06:58;;;;;;;24.60;15.70;;;;;;;23.74;57.88;99647.62;117118;1186;21872;-68
2021/09/18 06:09:27;;;;;;;27.90;16.10;;;;;;;23.71;58.00;99646.63;117328;1182;23500;-62
2021/09/18 06:11:58;;;;;;;20.90;15.90;;;;;;;23.75;58.18;99648.11;117334;1185;23525;-68
2021/09/18 06:14:46;;;;;;;23.00;15.10;;;;;;;23.78;58.11;99649.29;117038;1185;21859;-62
2021/09/18 06:17:34;;;;;;;21.90;16.40;;;;;;;23.80;58.11;99648.76;117285;1185;21855;-62
2021/09/18 06:20:04;;;;;;;23.10;16.40;;;;;;;23.80;58.10;99651.48;117290;1186;23469;-62
2021/09/18 06:22:33;;;;;;;22.40;17.90;;;;;;;23.82;58.26;99649.70;117319;1182;22919;-62
2021/09/18 06:25:22;;;;;;;19.90;16.40;;;;;;;23.85;58.30;99651.60;117297;1185;21859;-63
2021/09/18 06:27:52;;;;;;;26.90;17.80;;;;;;;23.87;58.23;99650.02;117041;1181;21858;-67
2021/09/18 06:30:22;;;;;;;31.40;17.50;;;;;;;23.87;58.36;99647.48;117312;1182;23453;-61
2021/09/18 06:32:51;;;;;;;26.00;16.30;;;;;;;23.84;58.45;99645.25;116955;1185;24189;-61
2021/09/18 06:35:19;;;;;;;25.80;17.20;;;;;;;23.83;58.40;99647.65;117157;1186;23598;-67
2021/09/18 06:37:48;;;;;;;24.90;17.40;;;;;;;23.83;58.65;99647.07;117374;1185;23909;-68
2021/09/18 06:40:18;;;;;;;19.70;16.50;;;;;;;23.87;58.59;99648.17;117371;1185;21846;-61
2021/09/18 06:42:46;;;;;;;27.40;18.00;;;;;;;23.92;58.58;99643.16;117224;1181;21865;-68
2021/09/18 06:45:17;;;;;;;21.60;17.80;;;;;;;23.96;58.51;99637.44;117321;1182;22624;-67
2021/09/18 06:47:46;;;;;;;22.20;16.00;;;;;;;24.01;58.64;99640.30;117090;1182;22970;-68
2021/09/18 06:50:15;;;;;;;24.80;18.30;;;;;;;24.05;58.55;99637.13;117297;1186;23465;-62
2021/09/18 06:52:43;;;;;;;21.90;17.10;;;;;;;24.12;58.59;99637.48;117315;1178;21848;-61
2021/09/18 06:55:12;;;;;;;22.50;16.80;;;;;;;24.18;58.50;99637.54;117259;1185;24152;-68
2021/09/18 06:57:41;;;;;;;23.40;18.00;;;;;;;24.21;58.41;99634.77;117319;1176;21918;-62
2021/09/18 07:00:10;;;;;;;26.10;17.10;;;;;;;24.25;58.41;99635.02;117351;1185;22163;-62
2021/09/18 07:02:38;;;;;;;25.00;17.20;;;;;;;24.24;58.25;99631.86;117253;1185;21865;-62
2021/09/18 07:05:14;;;;;;;22.50;17.40;;;;;;;24.16;58.50;99633.05;117179;1182;21863;-67
2021/09/18 07:07:42;;;;;;;22.70;17.20;;;;;;;24.12;58.63;99639.25;117240;1181;22929;-62
2021/09/18 07:10:11;;;;;;;23.10;17.40;;;;;;;24.11;58.66;99641.30;117247;1182;23450;-62
2021/09/18 07:12:41;;;;;;;21.80;16.50;;;;;;;24.11;58.69;99642.60;117278;1182;22636;-61
2021/09/18 07:15:10;;;;;;;24.70;16.40;;;;;;;24.10;58.66;99641.91;117108;1183;23452;-66
2021/09/18 07:17:40;;;;;;;22.60;17.50;;;;;;;24.15;58.55;99641.37;117313;1186;21970;-66
2021/09/18 07:20:09;;;;;;;23.80;17.80;;;;;;;24.13;58.66;99639.71;117122;1186;21869;-65
2021/09/18 07:22:37;;;;;;;23.70;17.30;;;;;;;24.19;58.60;99643.73;117318;1186;21867;-62
2021/09/18 07:25:07;;;;;;;26.60;17.10;;;;;;;24.20;58.65;99645.24;117409;1179;23452;-65
2021/09/18 07:27:35;;;;;;;25.80;17.30;;;;;;;24.27;58.49;99639.52;117258;1186;22651;-65
2021/09/18 07:30:05;;;;;;;21.30;17.20;;;;;;;24.30;58.59;99641.23;117275;1186;22872;-65
2021/09/18 07:32:33;;;;;;;22.80;17.40;;;;;;;24.39;58.34;99641.93;117280;1184;22092;-62
2021/09/18 07:35:05;;;;;;;23.50;17.50;;;;;;;24.42;58.44;99637.02;117328;1184;24162;-64
2021/09/18 07:37:35;;;;;;;22.90;15.90;;;;;;;24.40;58.54;99637.58;117358;1182;23454;-61
2021/09/18 07:40:08;;;;;;;23.40;17.30;;;;;;;24.40;58.68;99635.39;117312;1186;21856;-64
2021/09/18 07:42:37;;;;;;;23.40;16.40;;;;;;;24.44;58.54;99636.88;117309;1185;21857;-61
2021/09/18 07:45:06;;;;;;;25.20;17.30;;;;;;;24.52;58.48;99632.07;117023;1184;23473;-61
2021/09/18 07:47:34;;;;;;;21.70;16.80;;;;;;;24.56;58.56;99629.18;117343;1184;21859;-61
2021/09/18 07:50:04;;;;;;;19.70;17.10;;;;;;;24.59;58.58;99626.78;117081;1185;23506;-63
2021/09/18 07:52:32;;;;;;;20.50;16.20;;;;;;;24.69;58.59;99628.20;117313;1178;21858;-63
2021/09/18 07:55:01;;;;;;;21.70;17.60;;;;;;;24.84;58.78;99630.23;117304;1185;21899;-62
2021/09/18 07:57:50;;;;;;;23.40;17.10;;;;;;;25.01;58.90;99628.59;117073;1178;24194;-59
2021/09/18 08:00:24;;;;;;;21.00;18.10;;;;;;;24.98;59.29;99625.59;117209;1185;24201;-62
2021/09/18 08:02:53;;;;;;;18.20;15.90;;;;;;;25.15;59.27;99618.99;117194;1186;22971;-63
2021/09/18 08:05:23;;;;;;;18.60;15.70;;;;;;;25.30;59.16;99617.64;117026;1187;22873;-62
2021/09/18 08:07:51;;;;;;;21.70;15.50;;;;;;;25.43;59.15;99618.24;117328;1177;23446;-62
2021/09/18 08:10:19;;;;;;;21.40;15.80;;;;;;;25.53;59.17;99613.58;117341;1181;23529;-58
2021/09/18 08:12:49;;;;;;;20.80;15.10;;;;;;;25.69;59.38;99609.35;117262;1181;22018;-62
2021/09/18 08:15:18;;;;;;;20.40;15.60;;;;;;;25.88;59.32;99603.02;117006;1188;21858;-61
2021/09/18 08:17:47;;;;;;;19.30;14.90;;;;;;;26.07;59.33;99605.23;117411;1185;22928;-62
2021/09/18 08:20:16;;;;;;;21.30;14.60;;;;;;;26.23;59.30;99602.91;117345;1185;21837;-62
2021/09/18 08:22:49;;;;;;;20.30;13.00;;;;;;;26.37;59.41;99599.14;117139;1182;22918;-63
2021/09/18 08:25:30;;;;;;;17.10;13.40;;;;;;;26.52;59.33;99597.23;117340;1178;24236;-57
2021/09/18 08:27:59;;;;;;;17.30;12.90;;;;;;;26.63;59.16;99600.23;117368;1182;23634;-57
2021/09/18 08:30:27;;;;;;;14.90;12.90;;;;;;;26.76;59.15;99598.52;117316;1182;23648;-57
2021/09/18 08:32:55;;;;;;;16.20;14.00;;;;;;;26.88;59.35;99594.71;117072;1183;22929;-62
2021/09/18 08:35:24;;;;;;;22.00;15.20;;;;;;;27.03;59.49;99589.22;117327;1185;21858;-57
2021/09/18 09:08:55;;;;;;;13.60;9.40;;;;;;;26.29;64.62;99578.71;115215;1203;548077;-67
2021/09/18 09:11:29;;;;;;;12.70;10.10;;;;;;;27.99;61.57;99568.12;116730;1192;23451;-68
2021/09/18 09:14:10;;;;;;;12.90;8.50;;;;;;;28.10;61.46;99568.93;116597;1191;21861;-69
2021/09/18 09:17:02;;;;;;;13.20;7.10;;;;;;;28.19;60.97;99564.45;116603;1192;21863;-61
2021/09/18 09:19:40;;;;;;;15.30;8.50;;;;;;;28.18;60.68;99567.02;116561;1192;23599;-69
2021/09/18 09:22:42;;;;;;;11.80;8.70;;;;;;;28.05;60.29;99568.64;116671;1189;22882;-68
2021/09/18 09:25:24;;;;;;;9.80;5.40;;;;;;;27.83;60.35;99564.30;116577;1182;23509;-70
2021/09/18 09:27:53;;;;;;;6.40;5.00;;;;;;;27.80;60.56;99570.35;116653;1189;23453;-58
2021/09/18 09:30:31;;;;;;;7.60;5.60;;;;;;;27.79;60.66;99574.21;116590;1192;21866;-58
2021/09/18 09:33:08;;;;;;;7.70;5.30;;;;;;;27.76;60.91;99577.77;116497;1189;21854;-58
2021/09/18 09:35:38;;;;;;;6.80;4.70;;;;;;;27.72;60.79;99578.13;116578;1189;23651;-59
2021/09/18 09:38:07;;;;;;;5.80;4.40;;;;;;;27.69;60.89;99581.32;116703;1191;21905;-69
2021/09/18 09:40:41;;;;;;;6.40;4.70;;;;;;;27.72;60.95;99580.72;116729;1192;23019;-59
2021/09/18 09:43:20;;;;;;;6.60;3.90;;;;;;;27.82;61.03;99577.55;116668;1192;21854;-58
2021/09/18 09:45:49;;;;;;;6.70;5.00;;;;;;;27.95;61.31;99579.88;116593;1191;21874;-58
2021/09/18 09:48:20;;;;;;;7.90;6.20;;;;;;;28.11;61.47;99580.00;116594;1191;21862;-68
2021/09/18 09:51:01;;;;;;;9.30;6.10;;;;;;;28.28;61.40;99579.36;116586;1189;21909;-58
2021/09/18 09:53:31;;;;;;;;;;;;;;;28.45;61.41;99570.12;116701;1191;21911;-58
2021/09/18 09:56:06;;;;;;;11.60;5.50;;;;;;;28.67;61.40;99572.98;116709;1190;23719;-60
2021/09/18 09:58:56;;;;;;;8.40;5.90;;;;;;;28.85;61.36;99577.36;116605;1191;23794;-68
2021/09/18 10:01:25;;;;;;;7.70;6.10;;;;;;;29.10;61.56;99572.66;116557;1189;23450;-73
2021/09/18 10:03:54;;;;;;;8.00;5.60;;;;;;;29.44;61.85;99570.74;116513;1189;23447;-68
2021/09/18 10:06:36;;;;;;;10.10;6.40;;;;;;;29.71;61.83;99569.92;116530;1189;24283;-63
2021/09/18 10:09:06;;;;;;;9.30;6.00;;;;;;;29.95;61.75;99567.28;116436;1192;22855;-61
2021/09/18 10:11:35;;;;;;;9.80;7.00;;;;;;;30.05;61.59;99563.87;116447;1189;24176;-59
2021/09/18 10:14:04;;;;;;;7.90;6.30;;;;;;;30.20;61.68;99563.29;116443;1186;24151;-71
2021/09/18 10:16:32;;;;;;;7.90;6.10;;;;;;;30.40;61.70;99563.89;116394;1191;21868;-71
2021/09/18 10:19:05;;;;;;;9.40;6.40;;;;;;;30.49;61.56;99565.43;116491;1189;22919;-70
2021/09/18 10:24:25;;;;;;;7.60;6.20;;;;;;;30.70;61.27;99567.36;117149;1186;23685;-69
2021/09/18 10:27:12;;;;;;;7.00;5.80;;;;;;;30.81;61.06;99567.23;117089;1183;21993;-68
2021/09/18 10:29:40;;;;;;;9.40;6.60;;;;;;;30.98;61.25;99569.83;117002;1186;21867;-69
2021/09/18 10:32:09;;;;;;;7.90;6.90;;;;;;;31.07;61.28;99565.56;117068;1188;21873;-69
2021/09/18 10:34:37;;;;;;;11.10;7.40;;;;;;;31.24;61.41;99567.23;117076;1182;23566;-68
2021/09/18 10:37:32;;;;;;;9.40;6.90;;;;;;;31.47;61.50;99566.11;117163;1182;23579;-69
2021/09/18 10:40:12;;;;;;;9.20;6.30;;;;;;;31.86;61.32;99567.52;117263;1186;21861;-69
2021/09/18 10:42:46;;;;;;;8.20;6.00;;;;;;;31.97;60.79;99566.33;117133;1182;21857;-70
2021/09/18 10:45:15;;;;;;;6.70;5.00;;;;;;;32.03;60.46;99568.20;117022;1188;21872;-69
2021/09/18 10:47:48;;;;;;;7.20;5.90;;;;;;;32.03;60.33;99567.44;117321;1178;22419;-66
2021/09/18 10:50:27;;;;;;;11.50;8.80;;;;;;;32.07;60.41;99574.27;117127;1186;22648;-63
2021/09/18 10:53:18;;;;;;;10.00;7.90;;;;;;;32.06;60.16;99573.33;117289;1185;21915;-66
2021/09/18 10:56:05;;;;;;;10.50;7.70;;;;;;;32.07;60.64;99573.35;117006;1186;21862;-67
2021/09/18 10:58:35;;;;;;;8.70;7.30;;;;;;;32.33;61.11;99576.45;117308;1186;23688;-65
2021/09/18 11:01:03;;;;;;;9.80;8.20;;;;;;;32.58;61.13;99580.69;117180;1182;22938;-64
2021/09/18 11:03:33;;;;;;;11.50;8.50;;;;;;;32.70;60.67;99582.44;117150;1185;24145;-65
2021/09/18 11:06:02;;;;;;;9.10;7.70;;;;;;;32.70;60.44;99580.23;117269;1186;22964;-63
2021/09/18 11:08:52;;;;;;;11.40;8.80;;;;;;;32.79;59.72;99576.45;117240;1185;21851;-59
2021/09/18 11:11:23;;;;;;;8.60;7.50;;;;;;;32.64;59.91;99575.54;117086;1183;22926;-64
2021/09/18 11:13:53;;;;;;;12.00;8.00;;;;;;;32.52;60.06;99573.25;116935;1188;24210;-60
2021/09/18 11:37:51;;;;;;;9.00;6.80;;;;;;;30.40;63.96;99579.19;115367;1203;548410;-57
2021/09/18 11:40:20;;;;;;;9.40;6.70;;;;;;;31.47;60.73;99574.73;116956;1189;22186;-63
2021/09/18 11:42:55;;;;;;;10.00;7.10;;;;;;;31.40;60.54;99572.13;116887;1190;23552;-62
2021/09/18 11:45:23;;;;;;;9.50;6.40;;;;;;;31.35;60.27;99569.61;116869;1187;21871;-62
2021/09/18 11:48:16;;;;;;;11.60;6.60;;;;;;;31.31;60.21;99573.16;116927;1189;22441;-58
2021/09/18 11:50:44;;;;;;;9.70;6.80;;;;;;;31.33;60.27;99572.38;116934;1189;23076;-65
2021/09/18 11:53:13;;;;;;;7.70;6.20;;;;;;;31.38;60.58;99572.84;116834;1188;22532;-64
2021/09/18 11:55:45;;;;;;;8.80;6.80;;;;;;;31.45;60.39;99573.14;116997;1188;23417;-59
2021/09/18 11:58:17;;;;;;;12.00;6.70;;;;;;;31.46;60.34;99577.05;116934;1187;23669;-59
2021/09/18 12:00:49;;;;;;;10.20;7.00;;;;;;;31.33;60.03;99577.20;116959;1188;21880;-65
2021/09/18 12:03:25;;;;;;;9.50;6.70;;;;;;;31.19;59.84;99577.52;117309;1186;23639;-59
2021/09/18 12:06:02;;;;;;;8.40;7.00;;;;;;;31.00;59.90;99582.84;117117;1183;22467;-71
2021/09/18 12:08:31;;;;;;;8.40;6.00;;;;;;;30.86;59.95;99589.10;117020;1188;21899;-71
2021/09/18 12:11:10;;;;;;;8.50;6.20;;;;;;;30.75;60.20;99592.01;117034;1186;23901;-60
2021/09/18 12:13:39;;;;;;;10.10;6.50;;;;;;;30.73;60.26;99594.35;117198;1188;21848;-66
2021/09/18 12:16:09;;;;;;;7.20;5.30;;;;;;;30.82;60.41;99597.71;117356;1186;23442;-56
2021/09/18 12:18:40;;;;;;;7.20;5.80;;;;;;;30.96;60.59;99603.21;117317;1178;21853;-58
2021/09/18 12:21:15;;;;;;;7.50;5.10;;;;;;;31.18;60.37;99602.49;117336;1186;23552;-57
2021/09/18 12:23:57;;;;;;;8.20;5.20;;;;;;;31.32;60.10;99602.79;117295;1182;24165;-63
2021/09/18 12:26:33;;;;;;;7.60;4.50;;;;;;;31.26;59.73;99613.02;117325;1186;21867;-63
2021/09/18 12:29:09;;;;;;;8.20;4.70;;;;;;;31.06;59.60;99607.89;117277;1182;23636;-62
2021/09/18 12:31:37;;;;;;;9.00;4.50;;;;;;;30.86;59.62;99606.80;117389;1185;21999;-57
2021/09/18 12:34:17;;;;;;;5.30;4.10;;;;;;;30.67;59.65;99605.45;117021;1184;23493;-56
2021/09/18 12:36:46;;;;;;;5.20;3.80;;;;;;;30.55;59.66;99601.92;117067;1187;23573;-57